Time;durP1;ratioP1;P1;durP2;ratioP2;P2;SDS_P1;SDS_P2;PMS_P1;PMS_P2;Temp;Humidity;BMP_temperature;BMP_pressure;BME280_temperature;BME280_humidity;BME280_pressure;Samples;Min_cycle;Max_cycle;Signal;HPM_P1;HPM_P2
2022/12/16 00:00:03;;;;;;;22.08;15.00;;;7.40;71.90;;;;;;6095401;23;20450;-78
2022/12/16 00:02:29;;;;;;;20.77;14.32;;;7.40;71.90;;;;;;6095777;23;20010;-78
2022/12/16 00:04:56;;;;;;;19.63;15.05;;;7.40;71.90;;;;;;6095603;23;19999;-79
2022/12/16 00:07:22;;;;;;;22.92;14.98;;;7.50;72.00;;;;;;6095926;23;20454;-77
2022/12/16 00:09:47;;;;;;;19.95;15.68;;;7.40;72.00;;;;;;6095705;23;20006;-78
2022/12/16 00:12:13;;;;;;;18.98;14.77;;;7.40;72.00;;;;;;6093899;23;20038;-78
2022/12/16 00:14:38;;;;;;;18.98;14.60;;;7.40;72.10;;;;;;6094164;23;20073;-80
2022/12/16 00:17:04;;;;;;;18.20;14.43;;;7.40;72.10;;;;;;6095826;23;20002;-77
2022/12/16 00:19:30;;;;;;;20.52;14.68;;;7.40;72.10;;;;;;6094116;23;20085;-79
2022/12/16 00:21:56;;;;;;;19.95;15.25;;;7.40;72.00;;;;;;6095758;23;20006;-78
2022/12/16 00:24:21;;;;;;;19.08;14.95;;;7.40;71.90;;;;;;6097104;23;20013;-78
2022/12/16 00:26:47;;;;;;;19.70;15.25;;;7.40;71.90;;;;;;6096584;23;19998;-78
2022/12/16 00:29:12;;;;;;;19.52;15.07;;;7.40;71.90;;;;;;6094461;23;20101;-78
2022/12/16 00:31:38;;;;;;;22.50;14.88;;;7.40;71.80;;;;;;6096403;23;20178;-79
2022/12/16 00:34:03;;;;;;;20.33;15.20;;;7.40;71.90;;;;;;6095561;23;20029;-78
2022/12/16 00:36:29;;;;;;;20.90;14.70;;;7.40;71.90;;;;;;6096045;23;19999;-78
2022/12/16 00:38:54;;;;;;;19.58;14.93;;;7.40;71.90;;;;;;6094738;23;20006;-78
2022/12/16 00:41:20;;;;;;;20.15;15.45;;;7.40;72.00;;;;;;6096269;23;20002;-78
2022/12/16 00:43:46;;;;;;;20.25;14.68;;;7.40;71.90;;;;;;6096267;23;20009;-79
2022/12/16 00:46:12;;;;;;;19.38;14.95;;;7.40;71.90;;;;;;6094687;23;20022;-79
2022/12/16 00:48:37;;;;;;;18.88;14.80;;;7.40;71.90;;;;;;6094509;23;20014;-78
2022/12/16 00:51:03;;;;;;;19.95;14.70;;;7.40;72.00;;;;;;6094669;23;20427;-78
2022/12/16 00:53:28;;;;;;;18.73;14.07;;;7.40;72.00;;;;;;6096546;23;19995;-78
2022/12/16 00:56:02;;;;;;;18.02;14.27;;;7.40;72.00;;;;;;6094894;23;20070;-78
2022/12/16 00:58:28;;;;;;;18.95;14.60;;;7.40;72.10;;;;;;6095987;23;20027;-77
2022/12/16 01:00:53;;;;;;;35.72;15.98;;;7.40;72.00;;;;;;6094607;23;20077;-78
2022/12/16 01:03:19;;;;;;;27.33;15.30;;;7.40;72.00;;;;;;6096187;23;20494;-78
2022/12/16 01:05:44;;;;;;;22.13;14.50;;;7.40;72.10;;;;;;6096610;23;20033;-79
2022/12/16 01:08:10;;;;;;;20.10;14.05;;;7.40;72.10;;;;;;6096213;23;20069;-75
2022/12/16 01:10:35;;;;;;;18.60;14.27;;;7.40;72.10;;;;;;6094783;23;20036;-79
2022/12/16 01:13:01;;;;;;;18.05;13.73;;;7.40;72.00;;;;;;6094454;23;20317;-79
2022/12/16 01:15:26;;;;;;;19.30;13.52;;;7.40;72.00;;;;;;6094702;23;19999;-79
2022/12/16 01:17:52;;;;;;;23.02;14.48;;;7.40;71.90;;;;;;6094712;23;20003;-78
2022/12/16 01:20:17;;;;;;;18.20;14.07;;;7.40;72.00;;;;;;6094394;23;20006;-78
2022/12/16 01:22:43;;;;;;;18.40;13.65;;;7.40;72.10;;;;;;6096606;23;20010;-77
2022/12/16 01:25:11;;;;;;;19.83;13.55;;;7.40;72.00;;;;;;6094681;23;20097;-78
2022/12/16 01:27:37;;;;;;;23.05;13.98;;;7.40;72.00;;;;;;6094761;23;20010;-78
2022/12/16 01:30:03;;;;;;;19.02;14.05;;;7.40;72.10;;;;;;6095738;23;20013;-78
2022/12/16 01:32:29;;;;;;;20.98;14.57;;;7.40;72.00;;;;;;6096940;23;20010;-79
2022/12/16 01:34:54;;;;;;;17.92;13.65;;;7.40;72.00;;;;;;6098152;23;20005;-78
2022/12/16 01:37:21;;;;;;;18.10;13.57;;;7.40;72.10;;;;;;6098078;23;20053;-78
2022/12/16 01:39:46;;;;;;;17.33;13.35;;;7.40;72.00;;;;;;6097914;23;20006;-76
2022/12/16 01:42:14;;;;;;;17.67;13.43;;;7.40;71.90;;;;;;6098174;23;20006;-78
2022/12/16 01:44:45;;;;;;;19.15;13.82;;;7.40;71.90;;;;;;6098053;23;20007;-78
2022/12/16 01:47:22;;;;;;;17.58;13.48;;;7.40;71.90;;;;;;6097677;23;20006;-78
2022/12/16 01:49:53;;;;;;;17.80;13.15;;;7.40;72.00;;;;;;6096186;23;20018;-78
2022/12/16 01:52:24;;;;;;;18.50;13.50;;;7.40;71.90;;;;;;6097778;23;20002;-78
2022/12/16 01:55:22;;;;;;;19.00;13.65;;;7.40;72.00;;;;;;6097967;23;20006;-78
2022/12/16 01:57:53;;;;;;;18.33;13.27;;;7.40;71.90;;;;;;6096362;23;20002;-78
2022/12/16 02:00:19;;;;;;;19.92;14.05;;;7.40;71.90;;;;;;6096091;23;20006;-78
2022/12/16 02:02:46;;;;;;;17.67;13.77;;;7.40;72.00;;;;;;6096192;23;20006;-78
2022/12/16 02:05:19;;;;;;;17.13;13.10;;;7.40;71.90;;;;;;6097854;23;20065;-77
2022/12/16 02:07:57;;;;;;;18.40;13.30;;;7.40;71.90;;;;;;6096036;23;20002;-80
2022/12/16 02:10:37;;;;;;;19.55;13.75;;;7.40;72.00;;;;;;6098115;23;20062;-79
2022/12/16 02:13:08;;;;;;;18.95;13.65;;;7.40;71.90;;;;;;6097645;23;20006;-78
2022/12/16 02:15:52;;;;;;;19.58;14.13;;;7.40;71.90;;;;;;6096277;23;20057;-78
2022/12/16 02:18:52;;;;;;;17.42;13.45;;;7.40;71.80;;;;;;6096281;23;20003;-80
2022/12/16 02:21:43;;;;;;;16.88;13.15;;;7.40;71.90;;;;;;6095942;23;20026;-78
2022/12/16 02:24:22;;;;;;;18.33;14.02;;;7.40;71.90;;;;;;6098334;23;20007;-79
2022/12/16 02:27:00;;;;;;;18.25;13.98;;;7.40;71.90;;;;;;6098236;23;20002;-79
2022/12/16 02:29:45;;;;;;;18.55;13.95;;;7.40;72.00;;;;;;6095935;23;20014;-79
2022/12/16 02:32:25;;;;;;;19.77;14.63;;;7.40;72.00;;;;;;6095958;23;20010;-79
2022/12/16 02:34:56;;;;;;;19.50;14.50;;;7.40;72.00;;;;;;6097998;23;20002;-78
2022/12/16 02:37:36;;;;;;;17.38;13.63;;;7.40;72.00;;;;;;6097734;23;19999;-78
2022/12/16 02:40:27;;;;;;;17.80;14.13;;;7.40;71.90;;;;;;6097137;23;20057;-78
2022/12/16 02:42:56;;;;;;;;;;;7.40;71.90;;;;;;6097704;23;20002;-77
2022/12/16 02:45:26;;;;;;;17.35;13.52;;;7.40;71.80;;;;;;6095577;23;20340;-77
2022/12/16 02:47:52;;;;;;;18.20;14.02;;;7.40;71.90;;;;;;6095862;23;20050;-78
2022/12/16 02:50:33;;;;;;;20.08;14.52;;;7.40;71.90;;;;;;6096779;23;20003;-77
2022/12/16 02:53:00;;;;;;;;;;;7.40;71.90;;;;;;6097630;23;20007;-77
2022/12/16 02:55:38;;;;;;;17.17;13.32;;;7.40;71.90;;;;;;6097532;23;19902;-78
2022/12/16 02:58:27;;;;;;;18.38;14.00;;;7.40;71.90;;;;;;6096999;23;20424;-79
2022/12/16 03:01:30;;;;;;;17.85;13.55;;;7.40;71.80;;;;;;6095419;23;20667;-79
2022/12/16 03:04:18;;;;;;;19.75;14.02;;;7.40;71.90;;;;;;6095519;23;20420;-78
2022/12/16 03:06:48;;;;;;;20.95;14.70;;;7.40;71.90;;;;;;6097202;23;20510;-79
2022/12/16 03:09:18;;;;;;;18.67;14.13;;;7.40;71.90;;;;;;6096776;23;20030;-79
2022/12/16 03:11:45;;;;;;;18.65;14.52;;;7.40;72.10;;;;;;6095317;23;20014;-78
2022/12/16 03:14:14;;;;;;;18.55;14.00;;;7.40;71.80;;;;;;6095652;23;20078;-79
2022/12/16 03:16:41;;;;;;;18.33;13.80;;;7.40;71.80;;;;;;6095557;23;20013;-78
2022/12/16 03:19:10;;;;;;;18.80;13.98;;;7.40;71.80;;;;;;6097582;23;20002;-79
2022/12/16 03:21:53;;;;;;;18.88;14.55;;;7.40;71.80;;;;;;6096189;23;20393;-78
2022/12/16 03:24:19;;;;;;;20.98;15.10;;;7.40;71.80;;;;;;6096919;23;20014;-78
2022/12/16 03:27:06;;;;;;;19.48;14.23;;;7.40;71.80;;;;;;6097363;23;20006;-78
2022/12/16 03:29:50;;;;;;;19.92;14.50;;;7.40;71.90;;;;;;6098855;23;20474;-78
2022/12/16 03:32:26;;;;;;;19.30;14.55;;;7.40;71.90;;;;;;6098101;23;20006;-79
2022/12/16 03:35:00;;;;;;;19.40;14.60;;;7.40;71.80;;;;;;6098525;23;20388;-78
2022/12/16 03:37:30;;;;;;;19.17;14.70;;;7.40;71.80;;;;;;6098132;23;20005;-78
2022/12/16 03:40:00;;;;;;;19.58;14.77;;;7.40;71.70;;;;;;6094969;23;20089;-78
2022/12/16 03:42:26;;;;;;;20.45;14.52;;;7.40;71.70;;;;;;6096525;23;20021;-76
2022/12/16 03:44:52;;;;;;;20.52;15.18;;;7.40;71.80;;;;;;6096497;23;20083;-78
2022/12/16 03:47:18;;;;;;;20.17;15.23;;;7.40;71.80;;;;;;6096987;23;20002;-78
2022/12/16 03:49:44;;;;;;;21.17;15.10;;;7.40;71.70;;;;;;6094793;23;20010;-79
2022/12/16 03:52:10;;;;;;;19.75;14.68;;;7.40;71.80;;;;;;6096397;23;20003;-78
2022/12/16 03:54:36;;;;;;;18.67;13.77;;;7.40;71.70;;;;;;6096633;23;20009;-78
2022/12/16 03:57:02;;;;;;;20.05;15.15;;;7.40;71.80;;;;;;6096526;23;19998;-78
2022/12/16 03:59:27;;;;;;;19.33;14.32;;;7.40;71.70;;;;;;6092374;23;19999;-77
2022/12/16 04:01:53;;;;;;;19.80;14.80;;;7.40;71.80;;;;;;6096314;23;20011;-77
2022/12/16 04:04:19;;;;;;;21.45;14.98;;;7.40;71.60;;;;;;6095090;23;20093;-78
2022/12/16 04:06:45;;;;;;;18.52;14.15;;;7.40;71.60;;;;;;6096795;23;20009;-79
2022/12/16 04:09:10;;;;;;;20.35;14.88;;;7.40;71.70;;;;;;6096174;23;20007;-78
2022/12/16 04:25:34;;;;;;;20.60;14.55;;;7.30;71.50;;;;;;6097296;23;20017;-78
2022/12/16 04:28:00;;;;;;;19.40;15.18;;;7.40;71.60;;;;;;6095067;23;20013;-79
2022/12/16 04:30:26;;;;;;;20.38;15.35;;;7.30;71.40;;;;;;6095850;23;20422;-78
